sensor_id;sensor_type;location;lat;lon;timestamp;temperature;humidity
74416;SHT31;62850;42.428;25.618;2023-08-24T00:00:46;26.56;46.71
74416;SHT31;62850;42.428;25.618;2023-08-24T00:03:12;26.59;46.62
74416;SHT31;62850;42.428;25.618;2023-08-24T00:05:40;26.57;46.96
74416;SHT31;62850;42.428;25.618;2023-08-24T00:08:07;26.57;46.60
74416;SHT31;62850;42.428;25.618;2023-08-24T00:10:35;26.61;46.61
74416;SHT31;62850;42.428;25.618;2023-08-24T00:13:02;26.60;46.53
74416;SHT31;62850;42.428;25.618;2023-08-24T00:15:30;26.60;46.51
74416;SHT31;62850;42.428;25.618;2023-08-24T00:17:58;26.65;46.45
74416;SHT31;62850;42.428;25.618;2023-08-24T00:20:27;26.67;46.38
74416;SHT31;62850;42.428;25.618;2023-08-24T00:22:54;26.61;46.46
74416;SHT31;62850;42.428;25.618;2023-08-24T00:25:21;26.57;46.56
74416;SHT31;62850;42.428;25.618;2023-08-24T00:27:49;26.60;46.53
74416;SHT31;62850;42.428;25.618;2023-08-24T00:30:16;26.60;46.56
74416;SHT31;62850;42.428;25.618;2023-08-24T00:32:44;26.63;46.67
74416;SHT31;62850;42.428;25.618;2023-08-24T00:35:10;26.63;46.72
74416;SHT31;62850;42.428;25.618;2023-08-24T00:37:37;26.61;46.72
74416;SHT31;62850;42.428;25.618;2023-08-24T00:40:05;26.67;46.96
74416;SHT31;62850;42.428;25.618;2023-08-24T00:42:43;26.73;47.06
74416;SHT31;62850;42.428;25.618;2023-08-24T00:45:11;26.64;46.93
74416;SHT31;62850;42.428;25.618;2023-08-24T00:47:45;26.63;46.78
74416;SHT31;62850;42.428;25.618;2023-08-24T00:50:13;26.60;47.30
74416;SHT31;62850;42.428;25.618;2023-08-24T00:52:41;26.65;47.30
74416;SHT31;62850;42.428;25.618;2023-08-24T00:55:09;26.60;47.39
74416;SHT31;62850;42.428;25.618;2023-08-24T00:57:36;26.50;47.66
74416;SHT31;62850;42.428;25.618;2023-08-24T01:00:05;26.36;48.01
74416;SHT31;62850;42.428;25.618;2023-08-24T01:02:33;26.36;48.05
74416;SHT31;62850;42.428;25.618;2023-08-24T01:05:01;26.30;48.21
74416;SHT31;62850;42.428;25.618;2023-08-24T01:07:30;26.32;48.40
74416;SHT31;62850;42.428;25.618;2023-08-24T01:09:58;26.26;48.58
74416;SHT31;62850;42.428;25.618;2023-08-24T01:15:48;26.08;48.96
74416;SHT31;62850;42.428;25.618;2023-08-24T01:18:18;25.92;49.35
74416;SHT31;62850;42.428;25.618;2023-08-24T01:20:48;25.81;49.39
74416;SHT31;62850;42.428;25.618;2023-08-24T01:26:02;25.82;49.85
74416;SHT31;62850;42.428;25.618;2023-08-24T01:28:30;25.81;49.97
74416;SHT31;62850;42.428;25.618;2023-08-24T01:31:00;25.80;50.08
74416;SHT31;62850;42.428;25.618;2023-08-24T01:33:28;25.82;50.25
74416;SHT31;62850;42.428;25.618;2023-08-24T01:35:55;25.81;50.03
74416;SHT31;62850;42.428;25.618;2023-08-24T01:38:22;25.81;50.15
74416;SHT31;62850;42.428;25.618;2023-08-24T01:41:17;25.81;50.29
74416;SHT31;62850;42.428;25.618;2023-08-24T01:43:51;25.80;50.24
74416;SHT31;62850;42.428;25.618;2023-08-24T01:46:20;25.77;50.21
74416;SHT31;62850;42.428;25.618;2023-08-24T01:48:48;25.70;50.32
74416;SHT31;62850;42.428;25.618;2023-08-24T01:51:16;25.65;50.37
74416;SHT31;62850;42.428;25.618;2023-08-24T01:53:43;25.64;50.16
74416;SHT31;62850;42.428;25.618;2023-08-24T01:56:15;25.71;49.82
74416;SHT31;62850;42.428;25.618;2023-08-24T01:58:44;25.74;50.19
74416;SHT31;62850;42.428;25.618;2023-08-24T02:01:10;25.74;50.12
74416;SHT31;62850;42.428;25.618;2023-08-24T02:03:38;25.78;50.25
74416;SHT31;62850;42.428;25.618;2023-08-24T02:06:05;25.78;49.84
74416;SHT31;62850;42.428;25.618;2023-08-24T02:08:33;25.77;50.38
74416;SHT31;62850;42.428;25.618;2023-08-24T02:11:01;25.70;50.13
74416;SHT31;62850;42.428;25.618;2023-08-24T02:13:29;25.65;50.19
74416;SHT31;62850;42.428;25.618;2023-08-24T02:16:07;25.61;49.88
74416;SHT31;62850;42.428;25.618;2023-08-24T02:18:34;25.62;49.72
74416;SHT31;62850;42.428;25.618;2023-08-24T02:21:07;25.68;50.01
74416;SHT31;62850;42.428;25.618;2023-08-24T02:23:34;25.67;50.09
74416;SHT31;62850;42.428;25.618;2023-08-24T02:26:01;25.67;50.34
74416;SHT31;62850;42.428;25.618;2023-08-24T02:28:29;25.53;50.82
74416;SHT31;62850;42.428;25.618;2023-08-24T02:31:05;25.45;51.12
74416;SHT31;62850;42.428;25.618;2023-08-24T02:33:33;25.37;51.08
74416;SHT31;62850;42.428;25.618;2023-08-24T02:36:01;25.43;51.27
74416;SHT31;62850;42.428;25.618;2023-08-24T02:38:29;25.40;50.95
74416;SHT31;62850;42.428;25.618;2023-08-24T02:41:03;25.40;51.15
74416;SHT31;62850;42.428;25.618;2023-08-24T02:43:30;25.43;51.06
74416;SHT31;62850;42.428;25.618;2023-08-24T02:46:07;25.41;51.02
74416;SHT31;62850;42.428;25.618;2023-08-24T02:48:33;25.41;51.30
74416;SHT31;62850;42.428;25.618;2023-08-24T02:51:02;25.37;51.05
74416;SHT31;62850;42.428;25.618;2023-08-24T02:53:29;25.33;51.21
74416;SHT31;62850;42.428;25.618;2023-08-24T02:55:58;25.23;51.52
74416;SHT31;62850;42.428;25.618;2023-08-24T02:58:25;25.30;51.40
74416;SHT31;62850;42.428;25.618;2023-08-24T03:00:53;25.31;51.12
74416;SHT31;62850;42.428;25.618;2023-08-24T03:03:20;25.22;51.45
74416;SHT31;62850;42.428;25.618;2023-08-24T03:06:01;25.19;51.84
74416;SHT31;62850;42.428;25.618;2023-08-24T03:08:31;25.20;51.44
74416;SHT31;62850;42.428;25.618;2023-08-24T03:10:59;25.20;51.49
74416;SHT31;62850;42.428;25.618;2023-08-24T03:13:27;25.23;50.96
74416;SHT31;62850;42.428;25.618;2023-08-24T03:15:54;25.33;51.48
74416;SHT31;62850;42.428;25.618;2023-08-24T03:18:21;25.43;51.18
74416;SHT31;62850;42.428;25.618;2023-08-24T03:20:48;25.45;51.10
74416;SHT31;62850;42.428;25.618;2023-08-24T03:23:15;25.43;51.17
74416;SHT31;62850;42.428;25.618;2023-08-24T03:25:43;25.40;51.33
74416;SHT31;62850;42.428;25.618;2023-08-24T03:28:09;25.41;51.54
74416;SHT31;62850;42.428;25.618;2023-08-24T03:30:36;25.33;51.42
74416;SHT31;62850;42.428;25.618;2023-08-24T03:33:04;25.33;51.33
74416;SHT31;62850;42.428;25.618;2023-08-24T03:35:33;25.28;51.26
74416;SHT31;62850;42.428;25.618;2023-08-24T03:38:01;25.33;51.30
74416;SHT31;62850;42.428;25.618;2023-08-24T03:40:30;25.40;51.25
74416;SHT31;62850;42.428;25.618;2023-08-24T03:43:00;25.44;51.19
74416;SHT31;62850;42.428;25.618;2023-08-24T03:45:27;25.47;51.41
74416;SHT31;62850;42.428;25.618;2023-08-24T03:47:54;25.50;51.66
74416;SHT31;62850;42.428;25.618;2023-08-24T03:50:20;25.43;51.26
74416;SHT31;62850;42.428;25.618;2023-08-24T03:52:50;25.44;51.49
74416;SHT31;62850;42.428;25.618;2023-08-24T03:55:17;25.44;51.55
74416;SHT31;62850;42.428;25.618;2023-08-24T03:57:44;25.45;51.72
74416;SHT31;62850;42.428;25.618;2023-08-24T04:00:12;25.50;51.04
74416;SHT31;62850;42.428;25.618;2023-08-24T04:02:43;25.64;50.74
74416;SHT31;62850;42.428;25.618;2023-08-24T04:05:10;25.68;51.29
74416;SHT31;62850;42.428;25.618;2023-08-24T04:07:36;25.77;50.50
74416;SHT31;62850;42.428;25.618;2023-08-24T04:10:05;25.89;49.89
74416;SHT31;62850;42.428;25.618;2023-08-24T04:12:34;25.95;50.13
74416;SHT31;62850;42.428;25.618;2023-08-24T04:15:02;26.05;49.79
74416;SHT31;62850;42.428;25.618;2023-08-24T04:17:30;26.12;50.52
74416;SHT31;62850;42.428;25.618;2023-08-24T04:19:57;26.13;50.98
74416;SHT31;62850;42.428;25.618;2023-08-24T04:22:24;26.11;51.10
74416;SHT31;62850;42.428;25.618;2023-08-24T04:24:50;26.02;51.02
74416;SHT31;62850;42.428;25.618;2023-08-24T04:27:17;26.01;51.29
74416;SHT31;62850;42.428;25.618;2023-08-24T04:29:44;25.96;51.71
74416;SHT31;62850;42.428;25.618;2023-08-24T04:32:11;25.91;51.95
74416;SHT31;62850;42.428;25.618;2023-08-24T04:34:37;25.93;52.09
74416;SHT31;62850;42.428;25.618;2023-08-24T04:37:05;25.92;52.02
74416;SHT31;62850;42.428;25.618;2023-08-24T04:39:34;25.96;52.13
74416;SHT31;62850;42.428;25.618;2023-08-24T04:42:01;25.95;51.71
74416;SHT31;62850;42.428;25.618;2023-08-24T04:44:29;25.95;51.93
74416;SHT31;62850;42.428;25.618;2023-08-24T04:46:58;25.92;51.69
74416;SHT31;62850;42.428;25.618;2023-08-24T04:49:26;25.93;51.72
74416;SHT31;62850;42.428;25.618;2023-08-24T04:51:54;25.95;51.76
74416;SHT31;62850;42.428;25.618;2023-08-24T04:54:20;25.98;52.12
74416;SHT31;62850;42.428;25.618;2023-08-24T04:56:47;26.01;52.54
74416;SHT31;62850;42.428;25.618;2023-08-24T04:59:15;26.06;52.15
74416;SHT31;62850;42.428;25.618;2023-08-24T05:01:41;26.08;52.11
74416;SHT31;62850;42.428;25.618;2023-08-24T05:04:08;26.16;52.06
74416;SHT31;62850;42.428;25.618;2023-08-24T05:06:34;26.19;52.08
74416;SHT31;62850;42.428;25.618;2023-08-24T05:09:01;26.21;51.78
74416;SHT31;62850;42.428;25.618;2023-08-24T05:11:28;26.26;51.65
74416;SHT31;62850;42.428;25.618;2023-08-24T05:13:56;26.33;51.86
74416;SHT31;62850;42.428;25.618;2023-08-24T05:16:22;26.37;51.77
74416;SHT31;62850;42.428;25.618;2023-08-24T05:18:49;26.43;51.37
74416;SHT31;62850;42.428;25.618;2023-08-24T05:21:15;26.46;51.79
74416;SHT31;62850;42.428;25.618;2023-08-24T05:23:41;26.47;51.35
74416;SHT31;62850;42.428;25.618;2023-08-24T05:26:07;26.50;51.22
74416;SHT31;62850;42.428;25.618;2023-08-24T05:28:34;26.57;51.36
74416;SHT31;62850;42.428;25.618;2023-08-24T05:31:01;26.63;51.27
74416;SHT31;62850;42.428;25.618;2023-08-24T05:33:29;26.64;51.27
74416;SHT31;62850;42.428;25.618;2023-08-24T05:35:59;26.69;51.45
74416;SHT31;62850;42.428;25.618;2023-08-24T05:38:27;26.64;51.62
74416;SHT31;62850;42.428;25.618;2023-08-24T05:40:54;26.67;51.85
74416;SHT31;62850;42.428;25.618;2023-08-24T05:43:21;26.70;51.77
74416;SHT31;62850;42.428;25.618;2023-08-24T05:45:49;26.73;51.46
74416;SHT31;62850;42.428;25.618;2023-08-24T05:48:16;26.74;51.32
74416;SHT31;62850;42.428;25.618;2023-08-24T05:50:45;26.79;51.29
74416;SHT31;62850;42.428;25.618;2023-08-24T05:53:12;26.81;51.47
74416;SHT31;62850;42.428;25.618;2023-08-24T05:55:45;26.84;50.99
74416;SHT31;62850;42.428;25.618;2023-08-24T05:58:11;26.92;50.28
74416;SHT31;62850;42.428;25.618;2023-08-24T06:00:37;26.98;50.05
74416;SHT31;62850;42.428;25.618;2023-08-24T06:03:04;27.10;50.11
74416;SHT31;62850;42.428;25.618;2023-08-24T06:05:32;27.19;49.84
74416;SHT31;62850;42.428;25.618;2023-08-24T06:08:02;27.31;49.92
74416;SHT31;62850;42.428;25.618;2023-08-24T06:10:31;27.39;49.82
74416;SHT31;62850;42.428;25.618;2023-08-24T06:12:59;27.45;49.79
74416;SHT31;62850;42.428;25.618;2023-08-24T06:15:28;27.58;49.78
74416;SHT31;62850;42.428;25.618;2023-08-24T06:17:55;27.71;49.32
74416;SHT31;62850;42.428;25.618;2023-08-24T06:20:21;27.82;48.96
74416;SHT31;62850;42.428;25.618;2023-08-24T06:22:49;27.85;48.79
74416;SHT31;62850;42.428;25.618;2023-08-24T06:25:18;27.87;48.31
74416;SHT31;62850;42.428;25.618;2023-08-24T06:27:46;27.97;48.38
74416;SHT31;62850;42.428;25.618;2023-08-24T06:30:14;28.06;48.40
74416;SHT31;62850;42.428;25.618;2023-08-24T06:32:40;28.17;47.84
74416;SHT31;62850;42.428;25.618;2023-08-24T06:35:08;28.29;47.77
74416;SHT31;62850;42.428;25.618;2023-08-24T06:37:35;28.41;47.76
74416;SHT31;62850;42.428;25.618;2023-08-24T06:40:03;28.51;47.42
74416;SHT31;62850;42.428;25.618;2023-08-24T06:42:32;28.55;46.78
74416;SHT31;62850;42.428;25.618;2023-08-24T06:44:59;28.68;47.08
74416;SHT31;62850;42.428;25.618;2023-08-24T06:47:25;28.76;46.32
74416;SHT31;62850;42.428;25.618;2023-08-24T06:49:52;28.86;46.31
74416;SHT31;62850;42.428;25.618;2023-08-24T06:52:18;28.89;46.27
74416;SHT31;62850;42.428;25.618;2023-08-24T06:54:45;29.06;45.95
74416;SHT31;62850;42.428;25.618;2023-08-24T06:57:14;29.07;45.52
74416;SHT31;62850;42.428;25.618;2023-08-24T06:59:41;29.13;45.82
74416;SHT31;62850;42.428;25.618;2023-08-24T07:02:08;29.22;45.03
74416;SHT31;62850;42.428;25.618;2023-08-24T07:04:34;29.40;44.87
74416;SHT31;62850;42.428;25.618;2023-08-24T07:07:14;29.47;44.36
74416;SHT31;62850;42.428;25.618;2023-08-24T07:09:41;29.65;44.53
74416;SHT31;62850;42.428;25.618;2023-08-24T07:12:08;29.86;43.82
74416;SHT31;62850;42.428;25.618;2023-08-24T07:14:37;30.01;43.66
74416;SHT31;62850;42.428;25.618;2023-08-24T07:17:06;30.22;42.06
74416;SHT31;62850;42.428;25.618;2023-08-24T07:19:33;30.23;43.72
74416;SHT31;62850;42.428;25.618;2023-08-24T07:22:02;30.32;43.41
74416;SHT31;62850;42.428;25.618;2023-08-24T07:24:30;30.36;43.41
74416;SHT31;62850;42.428;25.618;2023-08-24T07:27:11;30.47;42.69
74416;SHT31;62850;42.428;25.618;2023-08-24T07:29:46;30.84;41.70
74416;SHT31;62850;42.428;25.618;2023-08-24T07:32:12;31.03;41.24
74416;SHT31;62850;42.428;25.618;2023-08-24T07:34:39;31.45;40.66
74416;SHT31;62850;42.428;25.618;2023-08-24T07:37:06;31.80;39.30
74416;SHT31;62850;42.428;25.618;2023-08-24T07:39:34;32.13;38.92
74416;SHT31;62850;42.428;25.618;2023-08-24T07:42:02;32.41;37.55
74416;SHT31;62850;42.428;25.618;2023-08-24T07:44:30;32.65;37.42
74416;SHT31;62850;42.428;25.618;2023-08-24T07:46:58;33.04;37.03
74416;SHT31;62850;42.428;25.618;2023-08-24T07:49:25;33.30;37.03
74416;SHT31;62850;42.428;25.618;2023-08-24T07:51:52;33.50;36.33
74416;SHT31;62850;42.428;25.618;2023-08-24T07:54:19;33.57;35.90
74416;SHT31;62850;42.428;25.618;2023-08-24T07:56:48;33.73;35.99
74416;SHT31;62850;42.428;25.618;2023-08-24T07:59:16;33.84;35.45
74416;SHT31;62850;42.428;25.618;2023-08-24T08:01:43;34.11;35.08
74416;SHT31;62850;42.428;25.618;2023-08-24T08:04:10;34.14;35.21
74416;SHT31;62850;42.428;25.618;2023-08-24T08:06:37;34.05;36.25
74416;SHT31;62850;42.428;25.618;2023-08-24T08:09:04;34.10;35.68
74416;SHT31;62850;42.428;25.618;2023-08-24T08:11:32;34.25;35.14
74416;SHT31;62850;42.428;25.618;2023-08-24T08:14:00;34.37;34.59
74416;SHT31;62850;42.428;25.618;2023-08-24T08:16:27;34.05;34.60
74416;SHT31;62850;42.428;25.618;2023-08-24T08:18:53;33.72;32.94
74416;SHT31;62850;42.428;25.618;2023-08-24T08:21:20;33.73;32.03
74416;SHT31;62850;42.428;25.618;2023-08-24T08:23:50;33.55;32.13
74416;SHT31;62850;42.428;25.618;2023-08-24T08:26:17;33.70;31.66
74416;SHT31;62850;42.428;25.618;2023-08-24T08:28:45;33.65;31.48
74416;SHT31;62850;42.428;25.618;2023-08-24T08:31:12;33.56;31.38
74416;SHT31;62850;42.428;25.618;2023-08-24T08:33:38;33.86;31.69
74416;SHT31;62850;42.428;25.618;2023-08-24T08:36:06;34.00;31.28
74416;SHT31;62850;42.428;25.618;2023-08-24T08:38:34;34.13;31.04
74416;SHT31;62850;42.428;25.618;2023-08-24T08:41:03;33.92;31.75
74416;SHT31;62850;42.428;25.618;2023-08-24T08:43:32;34.21;31.59
74416;SHT31;62850;42.428;25.618;2023-08-24T08:46:00;34.29;30.95
74416;SHT31;62850;42.428;25.618;2023-08-24T08:48:30;34.23;31.00
74416;SHT31;62850;42.428;25.618;2023-08-24T08:50:59;34.48;30.78
74416;SHT31;62850;42.428;25.618;2023-08-24T08:53:27;34.58;31.33
74416;SHT31;62850;42.428;25.618;2023-08-24T08:55:54;34.76;30.78
74416;SHT31;62850;42.428;25.618;2023-08-24T08:58:25;34.66;30.98
74416;SHT31;62850;42.428;25.618;2023-08-24T09:00:54;34.72;31.40
74416;SHT31;62850;42.428;25.618;2023-08-24T09:03:21;35.06;30.57
74416;SHT31;62850;42.428;25.618;2023-08-24T09:05:49;34.96;30.48
74416;SHT31;62850;42.428;25.618;2023-08-24T09:08:18;34.98;30.45
74416;SHT31;62850;42.428;25.618;2023-08-24T09:10:46;34.91;30.50
74416;SHT31;62850;42.428;25.618;2023-08-24T09:13:13;34.29;30.92
74416;SHT31;62850;42.428;25.618;2023-08-24T09:15:40;33.87;30.96
74416;SHT31;62850;42.428;25.618;2023-08-24T09:18:08;33.59;31.53
74416;SHT31;62850;42.428;25.618;2023-08-24T09:20:36;33.42;31.88
74416;SHT31;62850;42.428;25.618;2023-08-24T09:23:03;33.55;31.72
74416;SHT31;62850;42.428;25.618;2023-08-24T09:25:31;33.57;31.91
74416;SHT31;62850;42.428;25.618;2023-08-24T09:28:05;33.49;32.83
74416;SHT31;62850;42.428;25.618;2023-08-24T09:30:44;33.30;32.44
74416;SHT31;62850;42.428;25.618;2023-08-24T09:33:11;33.19;32.87
74416;SHT31;62850;42.428;25.618;2023-08-24T09:35:37;33.02;32.89
74416;SHT31;62850;42.428;25.618;2023-08-24T09:38:20;33.02;32.97
74416;SHT31;62850;42.428;25.618;2023-08-24T09:40:51;32.92;33.14
74416;SHT31;62850;42.428;25.618;2023-08-24T09:43:19;33.08;33.05
74416;SHT31;62850;42.428;25.618;2023-08-24T09:45:50;33.52;32.43
74416;SHT31;62850;42.428;25.618;2023-08-24T09:48:19;33.80;32.31
74416;SHT31;62850;42.428;25.618;2023-08-24T09:50:52;33.52;32.51
74416;SHT31;62850;42.428;25.618;2023-08-24T09:53:23;33.30;32.71
74416;SHT31;62850;42.428;25.618;2023-08-24T09:55:55;33.09;32.92
74416;SHT31;62850;42.428;25.618;2023-08-24T09:58:22;33.33;32.74
74416;SHT31;62850;42.428;25.618;2023-08-24T10:00:51;33.56;32.37
74416;SHT31;62850;42.428;25.618;2023-08-24T10:03:20;33.62;32.42
74416;SHT31;62850;42.428;25.618;2023-08-24T10:05:52;33.65;32.52
74416;SHT31;62850;42.428;25.618;2023-08-24T10:08:22;33.83;32.08
74416;SHT31;62850;42.428;25.618;2023-08-24T10:10:56;33.90;32.17
74416;SHT31;62850;42.428;25.618;2023-08-24T10:16:08;34.18;32.74
74416;SHT31;62850;42.428;25.618;2023-08-24T10:18:37;34.69;32.18
74416;SHT31;62850;42.428;25.618;2023-08-24T10:21:05;35.10;31.07
74416;SHT31;62850;42.428;25.618;2023-08-24T10:23:35;35.33;30.83
74416;SHT31;62850;42.428;25.618;2023-08-24T10:26:04;35.50;30.56
74416;SHT31;62850;42.428;25.618;2023-08-24T10:28:34;35.62;30.06
74416;SHT31;62850;42.428;25.618;2023-08-24T10:31:01;35.91;30.01
74416;SHT31;62850;42.428;25.618;2023-08-24T10:33:31;36.02;29.78
74416;SHT31;62850;42.428;25.618;2023-08-24T10:36:04;36.29;29.76
74416;SHT31;62850;42.428;25.618;2023-08-24T10:38:35;36.72;29.55
74416;SHT31;62850;42.428;25.618;2023-08-24T10:41:07;36.82;29.69
74416;SHT31;62850;42.428;25.618;2023-08-24T10:43:41;36.88;29.68
74416;SHT31;62850;42.428;25.618;2023-08-24T10:46:14;37.08;29.26
74416;SHT31;62850;42.428;25.618;2023-08-24T10:51:17;37.11;28.94
74416;SHT31;62850;42.428;25.618;2023-08-24T10:53:47;37.27;28.82
74416;SHT31;62850;42.428;25.618;2023-08-24T10:56:16;37.38;28.40
74416;SHT31;62850;42.428;25.618;2023-08-24T10:58:43;37.46;27.81
74416;SHT31;62850;42.428;25.618;2023-08-24T11:01:19;37.53;27.66
74416;SHT31;62850;42.428;25.618;2023-08-24T11:03:55;37.61;27.82
74416;SHT31;62850;42.428;25.618;2023-08-24T11:06:24;37.57;27.93
74416;SHT31;62850;42.428;25.618;2023-08-24T11:09:12;37.62;27.84
74416;SHT31;62850;42.428;25.618;2023-08-24T11:11:42;37.61;27.75
74416;SHT31;62850;42.428;25.618;2023-08-24T11:14:19;37.68;27.91
74416;SHT31;62850;42.428;25.618;2023-08-24T11:16:48;37.60;27.65
74416;SHT31;62850;42.428;25.618;2023-08-24T11:19:16;37.53;27.28
74416;SHT31;62850;42.428;25.618;2023-08-24T11:21:45;37.54;27.40
74416;SHT31;62850;42.428;25.618;2023-08-24T11:24:15;37.28;27.93
74416;SHT31;62850;42.428;25.618;2023-08-24T11:26:48;37.41;28.20
74416;SHT31;62850;42.428;25.618;2023-08-24T11:29:17;37.54;27.53
74416;SHT31;62850;42.428;25.618;2023-08-24T11:31:44;37.64;28.26
74416;SHT31;62850;42.428;25.618;2023-08-24T11:34:14;37.71;27.83
74416;SHT31;62850;42.428;25.618;2023-08-24T11:36:51;37.71;27.64
74416;SHT31;62850;42.428;25.618;2023-08-24T11:39:21;37.89;27.37
74416;SHT31;62850;42.428;25.618;2023-08-24T11:42:02;38.13;26.82
74416;SHT31;62850;42.428;25.618;2023-08-24T11:44:48;38.26;27.06
74416;SHT31;62850;42.428;25.618;2023-08-24T11:47:21;38.26;26.79
74416;SHT31;62850;42.428;25.618;2023-08-24T11:49:51;38.33;26.91
74416;SHT31;62850;42.428;25.618;2023-08-24T11:52:18;38.49;26.83
74416;SHT31;62850;42.428;25.618;2023-08-24T11:54:46;38.51;26.77
74416;SHT31;62850;42.428;25.618;2023-08-24T11:57:13;38.50;26.50
74416;SHT31;62850;42.428;25.618;2023-08-24T11:59:41;38.60;26.42
74416;SHT31;62850;42.428;25.618;2023-08-24T12:02:10;38.44;26.28
74416;SHT31;62850;42.428;25.618;2023-08-24T12:04:40;37.83;27.05
74416;SHT31;62850;42.428;25.618;2023-08-24T12:07:14;37.68;27.08
74416;SHT31;62850;42.428;25.618;2023-08-24T12:09:42;37.48;27.66
74416;SHT31;62850;42.428;25.618;2023-08-24T12:12:15;37.24;27.87
74416;SHT31;62850;42.428;25.618;2023-08-24T12:14:46;36.90;29.17
74416;SHT31;62850;42.428;25.618;2023-08-24T12:17:14;36.50;30.41
74416;SHT31;62850;42.428;25.618;2023-08-24T12:19:42;36.14;32.37
74416;SHT31;62850;42.428;25.618;2023-08-24T12:22:16;34.93;35.58
74416;SHT31;62850;42.428;25.618;2023-08-24T12:24:46;32.41;46.77
74416;SHT31;62850;42.428;25.618;2023-08-24T12:27:26;27.52;58.28
74416;SHT31;62850;42.428;25.618;2023-08-24T12:29:52;26.25;69.08
74416;SHT31;62850;42.428;25.618;2023-08-24T12:32:21;26.05;66.49
74416;SHT31;62850;42.428;25.618;2023-08-24T12:34:50;26.12;72.01
74416;SHT31;62850;42.428;25.618;2023-08-24T12:37:22;25.67;65.71
74416;SHT31;62850;42.428;25.618;2023-08-24T12:39:50;25.65;75.27
74416;SHT31;62850;42.428;25.618;2023-08-24T12:42:16;25.41;74.85
74416;SHT31;62850;42.428;25.618;2023-08-24T12:44:43;25.37;73.79
74416;SHT31;62850;42.428;25.618;2023-08-24T12:47:16;25.41;70.87
74416;SHT31;62850;42.428;25.618;2023-08-24T12:49:46;25.61;69.65
74416;SHT31;62850;42.428;25.618;2023-08-24T12:52:13;25.81;71.42
74416;SHT31;62850;42.428;25.618;2023-08-24T12:54:39;25.88;71.82
74416;SHT31;62850;42.428;25.618;2023-08-24T12:57:07;25.96;75.00
74416;SHT31;62850;42.428;25.618;2023-08-24T12:59:35;25.99;73.79
74416;SHT31;62850;42.428;25.618;2023-08-24T13:02:05;26.06;76.72
74416;SHT31;62850;42.428;25.618;2023-08-24T13:04:32;26.08;76.71
74416;SHT31;62850;42.428;25.618;2023-08-24T13:07:00;26.08;78.51
74416;SHT31;62850;42.428;25.618;2023-08-24T13:09:27;25.98;80.07
74416;SHT31;62850;42.428;25.618;2023-08-24T13:11:54;25.93;78.81
74416;SHT31;62850;42.428;25.618;2023-08-24T13:14:22;25.96;80.66
74416;SHT31;62850;42.428;25.618;2023-08-24T13:16:49;25.92;79.64
74416;SHT31;62850;42.428;25.618;2023-08-24T13:19:15;25.92;77.01
74416;SHT31;62850;42.428;25.618;2023-08-24T13:21:42;25.98;75.60
74416;SHT31;62850;42.428;25.618;2023-08-24T13:24:09;25.99;77.13
74416;SHT31;62850;42.428;25.618;2023-08-24T13:26:37;26.01;77.36
74416;SHT31;62850;42.428;25.618;2023-08-24T13:29:04;26.12;70.65
74416;SHT31;62850;42.428;25.618;2023-08-24T13:31:31;26.40;62.54
74416;SHT31;62850;42.428;25.618;2023-08-24T13:33:59;26.79;66.38
74416;SHT31;62850;42.428;25.618;2023-08-24T13:36:27;26.60;66.75
74416;SHT31;62850;42.428;25.618;2023-08-24T13:38:55;26.02;68.36
74416;SHT31;62850;42.428;25.618;2023-08-24T13:41:22;25.74;68.81
74416;SHT31;62850;42.428;25.618;2023-08-24T13:43:49;25.68;68.06
74416;SHT31;62850;42.428;25.618;2023-08-24T13:46:16;25.50;71.10
74416;SHT31;62850;42.428;25.618;2023-08-24T13:48:43;25.31;72.94
74416;SHT31;62850;42.428;25.618;2023-08-24T13:51:10;25.17;73.05
74416;SHT31;62850;42.428;25.618;2023-08-24T13:53:38;25.14;73.43
74416;SHT31;62850;42.428;25.618;2023-08-24T13:56:05;25.20;73.72
74416;SHT31;62850;42.428;25.618;2023-08-24T13:58:34;25.24;74.81
74416;SHT31;62850;42.428;25.618;2023-08-24T14:01:03;25.19;72.99
74416;SHT31;62850;42.428;25.618;2023-08-24T14:03:31;25.24;71.73
74416;SHT31;62850;42.428;25.618;2023-08-24T14:05:58;25.24;72.05
74416;SHT31;62850;42.428;25.618;2023-08-24T14:08:25;25.23;71.60
74416;SHT31;62850;42.428;25.618;2023-08-24T14:10:53;25.31;70.85
74416;SHT31;62850;42.428;25.618;2023-08-24T14:13:19;25.28;71.59
74416;SHT31;62850;42.428;25.618;2023-08-24T14:15:48;25.47;70.54
74416;SHT31;62850;42.428;25.618;2023-08-24T14:18:16;25.45;70.57
74416;SHT31;62850;42.428;25.618;2023-08-24T14:20:44;25.57;70.04
74416;SHT31;62850;42.428;25.618;2023-08-24T14:23:12;25.57;69.94
74416;SHT31;62850;42.428;25.618;2023-08-24T14:25:39;25.60;70.28
74416;SHT31;62850;42.428;25.618;2023-08-24T14:28:06;25.65;69.94
74416;SHT31;62850;42.428;25.618;2023-08-24T14:30:33;25.71;69.66
74416;SHT31;62850;42.428;25.618;2023-08-24T14:33:01;25.74;69.48
74416;SHT31;62850;42.428;25.618;2023-08-24T14:35:27;25.75;68.86
74416;SHT31;62850;42.428;25.618;2023-08-24T14:37:54;25.80;68.80
74416;SHT31;62850;42.428;25.618;2023-08-24T14:40:21;25.81;67.93
74416;SHT31;62850;42.428;25.618;2023-08-24T14:42:47;25.86;68.16
74416;SHT31;62850;42.428;25.618;2023-08-24T14:45:15;25.86;69.20
74416;SHT31;62850;42.428;25.618;2023-08-24T14:47:43;25.89;68.52
74416;SHT31;62850;42.428;25.618;2023-08-24T14:50:10;25.99;68.39
74416;SHT31;62850;42.428;25.618;2023-08-24T14:52:36;26.08;67.87
74416;SHT31;62850;42.428;25.618;2023-08-24T14:55:04;26.19;67.58
74416;SHT31;62850;42.428;25.618;2023-08-24T14:57:30;26.33;68.53
74416;SHT31;62850;42.428;25.618;2023-08-24T14:59:57;26.56;66.79
74416;SHT31;62850;42.428;25.618;2023-08-24T15:02:23;26.91;64.74
74416;SHT31;62850;42.428;25.618;2023-08-24T15:04:48;27.21;67.17
74416;SHT31;62850;42.428;25.618;2023-08-24T15:07:16;27.45;68.36
74416;SHT31;62850;42.428;25.618;2023-08-24T15:09:43;27.66;69.46
74416;SHT31;62850;42.428;25.618;2023-08-24T15:12:09;27.85;67.03
74416;SHT31;62850;42.428;25.618;2023-08-24T15:14:36;28.06;65.24
74416;SHT31;62850;42.428;25.618;2023-08-24T15:17:10;28.33;67.08
74416;SHT31;62850;42.428;25.618;2023-08-24T15:19:37;28.43;69.13
74416;SHT31;62850;42.428;25.618;2023-08-24T15:22:09;28.51;68.02
74416;SHT31;62850;42.428;25.618;2023-08-24T15:24:41;28.57;70.70
74416;SHT31;62850;42.428;25.618;2023-08-24T15:27:08;28.49;69.62
74416;SHT31;62850;42.428;25.618;2023-08-24T15:29:34;28.52;64.35
74416;SHT31;62850;42.428;25.618;2023-08-24T15:32:02;28.36;64.32
74416;SHT31;62850;42.428;25.618;2023-08-24T15:34:28;28.28;62.99